Time;durP1;ratioP1;P1;durP2;ratioP2;P2;SDS_P1;SDS_P2;PMS_P1;PMS_P2;Temp;Humidity;BMP_temperature;BMP_pressure;BME280_temperature;BME280_humidity;BME280_pressure;Samples;Min_cycle;Max_cycle;Signal;HPM_P1;HPM_P2
2022/07/02 00:01:12;;;;;;;0.00;0.00;;;14.90;99.90;;;;;;4997779;28;20977;-78
2022/07/02 00:03:47;;;;;;;0.00;0.00;;;14.90;99.90;;;;;;4998002;28;20508;-80
2022/07/02 00:06:18;;;;;;;0.00;0.00;;;14.90;99.90;;;;;;4999360;28;20826;-78
2022/07/02 00:08:48;;;;;;;0.00;0.00;;;14.80;99.90;;;;;;4998430;28;20438;-79
2022/07/02 00:11:17;;;;;;;0.00;0.00;;;14.90;99.90;;;;;;4999799;28;20452;-78
2022/07/02 00:13:45;;;;;;;0.00;0.00;;;14.90;99.90;;;;;;5007765;28;21017;-80
2022/07/02 00:16:13;;;;;;;0.00;0.00;;;14.90;99.90;;;;;;5014386;28;21152;-79
2022/07/02 00:18:41;;;;;;;0.00;0.00;;;14.80;99.90;;;;;;5013621;28;20433;-79
2022/07/02 00:21:09;;;;;;;0.00;0.00;;;14.80;99.90;;;;;;5009630;28;20450;-78
2022/07/02 00:23:37;;;;;;;0.00;0.00;;;14.80;99.90;;;;;;5004501;28;21127;-78
2022/07/02 00:26:09;;;;;;;0.00;0.00;;;14.80;99.90;;;;;;5002873;28;20544;-78
2022/07/02 00:28:40;;;;;;;0.00;0.00;;;14.70;99.90;;;;;;5002694;28;20536;-77
2022/07/02 00:31:08;;;;;;;0.00;0.00;;;14.70;99.90;;;;;;5001377;28;20682;-77
2022/07/02 00:33:36;;;;;;;0.00;0.00;;;14.70;99.90;;;;;;5001489;28;20434;-77
2022/07/02 00:36:05;;;;;;;0.00;0.00;;;14.60;99.90;;;;;;5002243;28;20545;-78
2022/07/02 00:38:32;;;;;;;0.00;0.00;;;14.60;99.90;;;;;;5002701;28;20476;-78
2022/07/02 00:41:02;;;;;;;0.00;0.00;;;14.60;99.90;;;;;;5001989;28;20474;-78
2022/07/02 00:43:33;;;;;;;0.00;0.00;;;14.60;99.90;;;;;;5001151;28;20486;-77
2022/07/02 00:46:01;;;;;;;0.00;0.00;;;14.60;99.90;;;;;;5000804;28;20450;-77
2022/07/02 00:48:29;;;;;;;0.00;0.00;;;14.50;99.90;;;;;;5002392;28;20599;-77
2022/07/02 00:50:57;;;;;;;0.00;0.00;;;14.50;99.90;;;;;;5001483;28;20454;-77
2022/07/02 00:53:25;;;;;;;0.00;0.00;;;14.50;99.90;;;;;;5001962;28;20500;-78
2022/07/02 00:55:56;;;;;;;0.00;0.00;;;14.50;99.90;;;;;;5003401;28;20835;-85
2022/07/02 00:58:25;;;;;;;0.00;0.00;;;14.50;99.90;;;;;;5006469;28;20706;-82
2022/07/02 01:00:55;;;;;;;0.00;0.00;;;14.40;99.90;;;;;;5004868;28;20932;-81
2022/07/02 01:03:23;;;;;;;0.00;0.00;;;14.40;99.90;;;;;;5003944;28;20488;-82
2022/07/02 01:05:53;;;;;;;0.00;0.00;;;14.40;99.90;;;;;;5004148;28;20672;-82
2022/07/02 01:11:19;;;;;;;0.00;0.00;;;14.40;99.90;;;;;;4968933;28;20446;-83
2022/07/02 01:13:47;;;;;;;0.00;0.00;;;14.30;99.90;;;;;;5006092;28;20426;-83
2022/07/02 01:16:16;;;;;;;0.00;0.00;;;14.30;99.90;;;;;;5003809;28;20450;-78
2022/07/02 01:18:44;;;;;;;0.00;0.00;;;14.40;99.90;;;;;;5001001;28;20457;-78
2022/07/02 01:21:12;;;;;;;0.00;0.00;;;14.40;99.90;;;;;;5000474;28;20464;-80
2022/07/02 01:23:41;;;;;;;0.00;0.00;;;14.40;99.90;;;;;;5004406;28;20482;-79
2022/07/02 01:26:09;;;;;;;0.00;0.00;;;14.40;99.90;;;;;;5003473;28;20445;-82
2022/07/02 01:28:37;;;;;;;0.00;0.00;;;14.40;99.90;;;;;;5004510;28;20949;-81
2022/07/02 01:31:05;;;;;;;0.00;0.00;;;14.50;99.90;;;;;;5004562;28;20450;-81
2022/07/02 01:33:33;;;;;;;0.00;0.00;;;14.50;99.90;;;;;;5006033;28;20435;-81
2022/07/02 01:36:01;;;;;;;0.00;0.00;;;14.50;99.90;;;;;;5004188;28;20449;-81
2022/07/02 01:38:29;;;;;;;0.00;0.00;;;14.50;99.90;;;;;;5004910;28;20457;-81
2022/07/02 01:43:43;;;;;;;0.00;0.00;;;14.50;99.90;;;;;;5002756;28;20604;-82
2022/07/02 01:46:11;;;;;;;0.00;0.00;;;14.60;99.90;;;;;;5003789;28;20450;-81
2022/07/02 01:48:39;;;;;;;0.00;0.00;;;14.50;99.90;;;;;;5003470;28;20502;-79
2022/07/02 01:51:07;;;;;;;0.00;0.00;;;14.60;99.90;;;;;;5003281;28;20612;-79
2022/07/02 01:53:35;;;;;;;0.00;0.00;;;14.60;99.90;;;;;;5002977;28;20462;-80
2022/07/02 01:56:04;;;;;;;0.00;0.00;;;14.60;99.90;;;;;;5003788;28;20933;-76
2022/07/02 01:58:32;;;;;;;0.00;0.00;;;14.60;99.90;;;;;;5005057;28;20560;-82
2022/07/02 02:01:00;;;;;;;0.00;0.00;;;14.60;99.90;;;;;;5003750;28;20454;-77
2022/07/02 02:03:28;;;;;;;0.00;0.00;;;14.60;99.90;;;;;;5005224;28;20497;-79
2022/07/02 02:05:56;;;;;;;0.00;0.00;;;14.60;99.90;;;;;;5001286;28;20458;-78
2022/07/02 02:08:24;;;;;;;0.00;0.00;;;14.60;99.90;;;;;;5000410;28;20538;-77
2022/07/02 02:10:52;;;;;;;0.00;0.00;;;14.60;99.90;;;;;;4999085;28;20926;-77
2022/07/02 02:13:21;;;;;;;0.00;0.00;;;14.60;99.90;;;;;;5000729;28;20534;-78
2022/07/02 02:15:49;;;;;;;0.00;0.00;;;14.60;99.90;;;;;;5001005;28;20446;-79
2022/07/02 02:21:48;;;;;;;0.00;0.00;;;14.60;99.90;;;;;;5992530;23;21196;-73
2022/07/02 02:24:15;;;;;;;0.00;0.00;;;14.70;99.90;;;;;;4983443;28;20531;-75
2022/07/02 02:26:43;;;;;;;0.00;0.00;;;14.70;99.90;;;;;;4979392;28;20782;-73
2022/07/02 02:29:12;;;;;;;0.00;0.00;;;14.70;99.90;;;;;;4979680;28;20453;-72
2022/07/02 02:31:40;;;;;;;0.00;0.00;;;14.70;99.90;;;;;;4980435;28;20457;-74
2022/07/02 02:34:08;;;;;;;0.00;0.00;;;14.80;99.90;;;;;;4979494;28;20590;-74
2022/07/02 02:36:36;;;;;;;0.00;0.00;;;14.80;99.90;;;;;;4979321;28;20478;-72
2022/07/02 02:39:04;;;;;;;0.00;0.00;;;14.70;99.90;;;;;;4979460;28;20437;-72
2022/07/02 02:41:32;;;;;;;0.00;0.00;;;14.70;99.90;;;;;;4979280;28;20728;-75
2022/07/02 02:44:00;;;;;;;0.00;0.00;;;14.70;99.90;;;;;;4979644;28;20479;-72
2022/07/02 02:46:29;;;;;;;0.00;0.00;;;14.70;99.90;;;;;;4979335;28;20481;-73
2022/07/02 02:48:57;;;;;;;0.00;0.00;;;14.70;99.90;;;;;;4979113;28;20522;-75
2022/07/02 02:51:24;;;;;;;0.00;0.00;;;14.70;99.90;;;;;;4979281;28;20489;-74
2022/07/02 02:53:53;;;;;;;0.00;0.00;;;14.70;99.90;;;;;;4979673;28;20450;-75
2022/07/02 02:56:21;;;;;;;0.00;0.00;;;14.60;99.90;;;;;;4979159;28;20904;-73
2022/07/02 02:58:49;;;;;;;0.00;0.00;;;14.60;99.90;;;;;;4979240;28;20447;-76
2022/07/02 03:01:16;;;;;;;0.00;0.00;;;14.60;99.90;;;;;;4979558;28;20439;-76
2022/07/02 03:03:46;;;;;;;0.00;0.00;;;14.60;99.90;;;;;;4985244;28;20505;-78
2022/07/02 03:06:14;;;;;;;0.00;0.00;;;14.60;99.90;;;;;;4987368;28;20476;-79
2022/07/02 03:08:42;;;;;;;0.00;0.00;;;14.60;99.90;;;;;;4985448;28;20485;-76
2022/07/02 03:11:10;;;;;;;0.00;0.00;;;14.60;99.90;;;;;;4979333;28;20486;-76
2022/07/02 03:13:37;;;;;;;0.00;0.00;;;14.50;99.90;;;;;;4979381;28;20810;-76
2022/07/02 03:16:42;;;;;;;0.00;0.00;;;14.60;99.90;;;;;;4987211;28;20443;-78
2022/07/02 03:19:12;;;;;;;0.00;0.00;;;14.50;99.90;;;;;;4981646;28;20477;-75
2022/07/02 03:21:39;;;;;;;0.00;0.00;;;14.50;99.90;;;;;;4979080;28;20469;-78
2022/07/02 03:24:08;;;;;;;0.00;0.00;;;14.50;99.90;;;;;;4978976;28;20574;-78
2022/07/02 03:26:35;;;;;;;0.00;0.00;;;14.50;99.90;;;;;;4978799;28;20469;-76
2022/07/02 03:29:03;;;;;;;0.00;0.00;;;14.40;99.90;;;;;;4978786;28;20441;-77
2022/07/02 03:31:32;;;;;;;0.00;0.00;;;14.50;99.90;;;;;;4978795;28;20489;-78
2022/07/02 03:34:00;;;;;;;0.00;0.00;;;14.50;99.90;;;;;;4979085;28;20690;-78
2022/07/02 03:36:30;;;;;;;0.00;0.00;;;14.50;99.90;;;;;;4979060;28;20923;-77
2022/07/02 03:38:58;;;;;;;0.00;0.00;;;14.50;99.90;;;;;;4979141;28;20451;-79
2022/07/02 03:41:26;;;;;;;0.00;0.00;;;14.50;99.90;;;;;;4979589;28;20458;-77
2022/07/02 03:43:53;;;;;;;0.00;0.00;;;14.50;99.90;;;;;;4978402;28;20450;-76
2022/07/02 03:46:21;;;;;;;0.00;0.00;;;14.50;99.90;;;;;;4978726;28;20470;-76
2022/07/02 03:48:50;;;;;;;0.00;0.00;;;14.60;99.90;;;;;;4979309;28;20472;-77
2022/07/02 03:51:18;;;;;;;0.00;0.00;;;14.60;99.90;;;;;;4982336;28;20671;-76
2022/07/02 03:53:48;;;;;;;0.00;0.00;;;14.60;99.90;;;;;;4983980;28;20672;-77
2022/07/02 03:56:16;;;;;;;0.00;0.00;;;14.70;99.90;;;;;;4987403;28;20969;-78
2022/07/02 03:58:44;;;;;;;0.00;0.00;;;14.60;99.90;;;;;;4983809;28;20453;-78
2022/07/02 04:01:11;;;;;;;0.00;0.00;;;14.70;99.90;;;;;;4983547;28;20898;-78
2022/07/02 04:03:39;;;;;;;0.00;0.00;;;14.60;99.90;;;;;;4982690;28;20454;-76
2022/07/02 04:06:07;;;;;;;0.00;0.00;;;14.70;99.90;;;;;;4986810;28;20478;-77
2022/07/02 04:08:35;;;;;;;0.00;0.00;;;14.70;99.90;;;;;;4987689;28;20457;-79
2022/07/02 04:11:04;;;;;;;0.00;0.00;;;14.70;99.90;;;;;;4985961;28;20453;-77
2022/07/02 04:13:32;;;;;;;0.00;0.00;;;14.70;99.90;;;;;;4990268;28;20446;-78
2022/07/02 04:16:00;;;;;;;0.00;0.00;;;14.80;99.90;;;;;;4985523;28;20431;-78
2022/07/02 04:18:28;;;;;;;0.00;0.00;;;14.80;99.90;;;;;;4987397;28;20458;-79
2022/07/02 04:20:55;;;;;;;0.00;0.00;;;14.90;99.90;;;;;;4983927;28;20832;-77
2022/07/02 04:23:23;;;;;;;0.00;0.00;;;14.90;99.90;;;;;;4981891;28;20463;-78
2022/07/02 04:25:51;;;;;;;0.00;0.00;;;14.90;99.90;;;;;;4983154;28;20781;-78
2022/07/02 04:28:20;;;;;;;0.00;0.00;;;15.00;99.90;;;;;;4982451;28;20466;-75
2022/07/02 04:30:48;;;;;;;0.00;0.00;;;15.00;99.90;;;;;;4981708;28;20805;-76
2022/07/02 04:33:16;;;;;;;0.00;0.00;;;15.10;99.90;;;;;;4981712;28;20962;-76
2022/07/02 04:35:44;;;;;;;0.00;0.00;;;15.10;99.90;;;;;;4982035;28;20445;-77
2022/07/02 04:38:12;;;;;;;0.00;0.00;;;15.20;99.90;;;;;;4982096;28;21033;-78
2022/07/02 04:40:39;;;;;;;0.00;0.00;;;15.20;99.90;;;;;;4985735;28;20482;-77
2022/07/02 04:43:07;;;;;;;0.00;0.00;;;15.20;99.90;;;;;;4985019;28;20970;-78
2022/07/02 04:45:36;;;;;;;0.00;0.00;;;15.30;99.90;;;;;;4983092;28;20769;-77
2022/07/02 04:48:04;;;;;;;0.00;0.00;;;15.30;99.90;;;;;;4982363;28;20521;-75
2022/07/02 04:50:32;;;;;;;0.00;0.00;;;15.40;99.90;;;;;;4981343;28;20470;-76
2022/07/02 04:53:00;;;;;;;0.00;0.00;;;15.40;99.90;;;;;;4981136;28;20602;-74
2022/07/02 04:55:28;;;;;;;0.00;0.00;;;15.50;99.90;;;;;;4981222;28;20968;-76
2022/07/02 04:57:56;;;;;;;0.00;0.00;;;15.60;99.90;;;;;;4986935;28;21129;-75
2022/07/02 05:00:24;;;;;;;0.00;0.00;;;15.60;99.90;;;;;;5000460;28;20885;-74
2022/07/02 05:02:53;;;;;;;0.00;0.00;;;15.70;99.90;;;;;;5000375;28;20733;-74
2022/07/02 05:05:21;;;;;;;0.00;0.00;;;15.80;99.90;;;;;;5000543;28;20473;-75
2022/07/02 05:07:48;;;;;;;0.00;0.00;;;15.80;99.90;;;;;;5002806;28;20552;-76
2022/07/02 05:10:16;;;;;;;0.00;0.00;;;15.80;99.90;;;;;;5001344;28;20438;-74
2022/07/02 05:12:44;;;;;;;0.00;0.00;;;15.90;99.90;;;;;;5001910;28;20485;-77
2022/07/02 05:15:12;;;;;;;0.00;0.00;;;15.90;99.90;;;;;;5000732;28;20593;-76
2022/07/02 05:17:40;;;;;;;0.00;0.00;;;15.90;99.90;;;;;;5000774;28;20478;-76
2022/07/02 05:20:10;;;;;;;0.00;0.00;;;16.00;99.90;;;;;;5000705;28;20557;-76
2022/07/02 05:22:41;;;;;;;0.00;0.00;;;16.10;99.90;;;;;;5000422;28;20521;-77
2022/07/02 05:25:09;;;;;;;0.00;0.00;;;16.10;99.90;;;;;;5000884;28;20488;-75
2022/07/02 05:27:37;;;;;;;0.00;0.00;;;16.20;99.90;;;;;;5000189;28;20455;-76
2022/07/02 05:30:06;;;;;;;0.00;0.00;;;16.20;99.90;;;;;;5000716;28;20444;-76
2022/07/02 05:32:34;;;;;;;0.00;0.00;;;16.40;99.90;;;;;;4999687;28;21031;-75
2022/07/02 05:35:02;;;;;;;0.00;0.00;;;16.70;99.90;;;;;;5000666;28;20607;-74
2022/07/02 05:37:31;;;;;;;0.00;0.00;;;17.00;99.90;;;;;;4999971;28;20514;-75
2022/07/02 05:39:59;;;;;;;0.00;0.00;;;17.20;99.90;;;;;;5000488;28;20540;-75
2022/07/02 05:42:27;;;;;;;0.00;0.00;;;17.30;99.90;;;;;;5000413;28;20611;-77
2022/07/02 05:44:55;;;;;;;0.00;0.00;;;17.20;99.90;;;;;;5000561;28;20461;-77
2022/07/02 05:47:22;;;;;;;0.00;0.00;;;17.20;99.90;;;;;;4999919;28;20973;-76
2022/07/02 05:49:50;;;;;;;0.00;0.00;;;17.20;99.90;;;;;;5000023;28;20486;-76
2022/07/02 05:52:18;;;;;;;0.00;0.00;;;17.10;99.90;;;;;;4999894;28;20443;-81
2022/07/02 05:54:47;;;;;;;0.00;0.00;;;17.10;99.90;;;;;;5000624;28;20502;-77
2022/07/02 05:57:15;;;;;;;0.00;0.00;;;17.10;99.90;;;;;;4999487;28;20464;-76
2022/07/02 05:59:43;;;;;;;0.00;0.00;;;17.10;99.90;;;;;;5000065;28;20456;-77
2022/07/02 06:02:11;;;;;;;0.00;0.00;;;17.10;99.90;;;;;;4999809;28;20434;-74
2022/07/02 06:04:38;;;;;;;0.00;0.00;;;17.20;99.90;;;;;;5005521;28;20449;-79
2022/07/02 06:09:54;;;;;;;0.00;0.00;;;17.20;99.90;;;;;;5004331;28;20436;-78
2022/07/02 06:12:22;;;;;;;0.00;0.00;;;17.20;99.90;;;;;;4986593;28;21013;-68
2022/07/02 06:14:50;;;;;;;0.00;0.00;;;17.20;99.90;;;;;;4986029;28;20483;-68
2022/07/02 06:17:18;;;;;;;0.00;0.00;;;17.20;99.90;;;;;;4984615;28;20761;-68
2022/07/02 06:19:47;;;;;;;0.00;0.00;;;17.30;99.90;;;;;;4991963;28;20483;-67
2022/07/02 06:22:15;;;;;;;0.00;0.00;;;17.50;99.90;;;;;;4982713;28;20495;-68
2022/07/02 06:24:45;;;;;;;0.00;0.00;;;17.60;99.90;;;;;;4990808;28;20514;-67
2022/07/02 06:27:14;;;;;;;0.00;0.00;;;17.70;99.90;;;;;;4983407;28;20494;-68
2022/07/02 06:29:42;;;;;;;0.00;0.00;;;17.80;99.90;;;;;;5001478;28;20730;-68
2022/07/02 06:32:10;;;;;;;0.00;0.00;;;18.00;99.90;;;;;;4996920;28;20495;-68
2022/07/02 06:34:38;;;;;;;0.00;0.00;;;18.10;99.90;;;;;;4987348;28;20929;-67
2022/07/02 06:37:06;;;;;;;0.00;0.00;;;18.10;99.90;;;;;;4997647;28;21045;-67
2022/07/02 06:39:34;;;;;;;0.00;0.00;;;18.30;99.90;;;;;;4999358;28;20449;-66
2022/07/02 06:42:22;;;;;;;0.00;0.00;;;18.30;99.90;;;;;;4995459;28;20458;-67
2022/07/02 06:44:53;;;;;;;0.00;0.00;;;18.40;99.90;;;;;;4985928;28;20731;-67
2022/07/02 06:47:25;;;;;;;0.00;0.00;;;18.60;99.90;;;;;;4986611;28;20734;-68
2022/07/02 06:49:55;;;;;;;0.00;0.00;;;18.60;99.90;;;;;;4999069;28;20441;-68
2022/07/02 06:52:24;;;;;;;0.00;0.00;;;18.60;99.90;;;;;;4988409;28;20472;-68
2022/07/02 06:54:52;;;;;;;0.00;0.00;;;18.70;99.90;;;;;;4997368;28;20449;-67
2022/07/02 06:57:20;;;;;;;0.00;0.00;;;18.70;99.90;;;;;;4987990;28;20477;-68
2022/07/02 06:59:54;;;;;;;0.00;0.00;;;18.80;99.90;;;;;;4998064;28;20753;-66
2022/07/02 07:02:22;;;;;;;0.00;0.00;;;18.80;99.90;;;;;;4998596;28;20594;-66
2022/07/02 07:04:50;;;;;;;0.00;0.00;;;19.00;99.90;;;;;;4998487;28;20441;-66
2022/07/02 07:07:19;;;;;;;0.00;0.00;;;19.10;99.90;;;;;;4998489;28;20509;-67
2022/07/02 07:09:47;;;;;;;0.00;0.00;;;19.20;99.90;;;;;;4998449;28;20448;-67
2022/07/02 07:12:15;;;;;;;0.00;0.00;;;19.30;99.90;;;;;;4998230;28;20989;-65
2022/07/02 07:14:42;;;;;;;0.00;0.00;;;19.30;99.90;;;;;;4998568;28;20669;-66
2022/07/02 07:17:13;;;;;;;0.00;0.00;;;19.40;99.90;;;;;;4998662;28;20465;-65
2022/07/02 07:19:40;;;;;;;0.00;0.00;;;19.40;99.90;;;;;;4998593;28;20610;-68
2022/07/02 07:22:09;;;;;;;0.00;0.00;;;19.40;99.90;;;;;;4998240;28;20441;-74
2022/07/02 07:24:37;;;;;;;0.00;0.00;;;19.40;99.90;;;;;;5000034;28;20457;-71
2022/07/02 07:27:05;;;;;;;0.00;0.00;;;19.50;99.90;;;;;;5002695;28;20493;-74
2022/07/02 07:29:35;;;;;;;0.00;0.00;;;19.60;99.90;;;;;;5002598;28;21176;-72
2022/07/02 07:32:03;;;;;;;0.00;0.00;;;19.60;99.90;;;;;;5002193;28;20964;-72
2022/07/02 07:34:32;;;;;;;0.00;0.00;;;19.70;99.90;;;;;;5002316;28;20444;-74
2022/07/02 07:37:00;;;;;;;0.00;0.00;;;19.80;99.90;;;;;;5000440;28;20466;-72
2022/07/02 07:39:28;;;;;;;0.00;0.00;;;19.90;99.90;;;;;;4988265;28;21218;-77
2022/07/02 07:41:56;;;;;;;0.00;0.00;;;20.00;99.90;;;;;;4994058;28;20963;-78
2022/07/02 07:44:24;;;;;;;0.00;0.00;;;20.00;99.90;;;;;;5001547;28;20460;-76
2022/07/02 07:46:52;;;;;;;0.00;0.00;;;20.00;99.90;;;;;;4990700;28;20573;-78
2022/07/02 07:49:19;;;;;;;0.00;0.00;;;20.10;99.90;;;;;;4991937;28;20466;-77
2022/07/02 07:51:49;;;;;;;0.00;0.00;;;20.10;99.90;;;;;;4983645;28;20465;-77
2022/07/02 07:54:17;;;;;;;0.00;0.00;;;20.30;99.90;;;;;;4983581;28;20505;-78
2022/07/02 07:56:44;;;;;;;0.00;0.00;;;20.20;99.90;;;;;;4983819;28;20526;-77
2022/07/02 07:59:12;;;;;;;0.00;0.00;;;20.30;99.90;;;;;;4983877;28;20945;-77
2022/07/02 08:01:40;;;;;;;0.00;0.00;;;20.30;99.90;;;;;;4990203;28;20481;-78
2022/07/02 08:04:08;;;;;;;0.00;0.00;;;20.40;99.90;;;;;;4988507;28;20454;-78
2022/07/02 08:06:36;;;;;;;0.00;0.00;;;20.50;99.90;;;;;;4994877;28;20481;-77
2022/07/02 08:09:05;;;;;;;0.00;0.00;;;20.50;99.90;;;;;;4984358;28;20530;-78
2022/07/02 08:11:33;;;;;;;0.00;0.00;;;20.50;99.90;;;;;;4983399;28;20447;-77
2022/07/02 08:14:01;;;;;;;0.00;0.00;;;20.50;99.90;;;;;;4988109;28;20517;-78
2022/07/02 08:16:29;;;;;;;0.00;0.00;;;20.50;99.90;;;;;;4995110;28;21035;-82
2022/07/02 08:18:56;;;;;;;0.00;0.00;;;20.50;99.90;;;;;;4995383;28;20439;-79
2022/07/02 08:21:24;;;;;;;0.00;0.00;;;20.60;99.90;;;;;;4987335;28;20466;-80
2022/07/02 08:23:52;;;;;;;0.00;0.00;;;20.70;99.90;;;;;;4985895;28;20623;-80
2022/07/02 08:26:22;;;;;;;0.00;0.00;;;20.80;99.90;;;;;;4986065;28;20856;-80
2022/07/02 08:28:49;;;;;;;0.00;0.00;;;20.90;99.90;;;;;;4986793;28;20551;-82
2022/07/02 08:31:17;;;;;;;0.00;0.00;;;21.00;99.90;;;;;;4987385;28;20517;-70
2022/07/02 08:33:48;;;;;;;0.00;0.00;;;21.00;99.90;;;;;;4995337;28;20486;-70
2022/07/02 08:36:16;;;;;;;0.00;0.00;;;21.00;99.90;;;;;;4992755;28;20942;-70
2022/07/02 08:38:47;;;;;;;0.00;0.00;;;21.10;99.90;;;;;;4995195;28;20552;-70
2022/07/02 08:41:18;;;;;;;0.00;0.00;;;20.90;99.90;;;;;;4989274;28;20459;-73
2022/07/02 08:43:51;;;;;;;0.00;0.00;;;20.90;99.90;;;;;;4993241;28;20440;-73
2022/07/02 08:46:20;;;;;;;0.00;0.00;;;20.90;99.90;;;;;;4984453;28;20829;-73
2022/07/02 08:48:50;;;;;;;0.00;0.00;;;21.00;99.90;;;;;;4989976;28;20519;-73
2022/07/02 08:51:20;;;;;;;0.00;0.00;;;21.10;99.90;;;;;;4983958;28;20454;-72
2022/07/02 08:53:49;;;;;;;0.00;0.00;;;21.10;99.90;;;;;;4982972;28;20463;-73
2022/07/02 08:56:18;;;;;;;0.00;0.00;;;21.20;99.90;;;;;;4987712;28;20453;-72
2022/07/02 08:58:49;;;;;;;0.00;0.00;;;21.20;99.90;;;;;;4988082;28;20533;-73
2022/07/02 09:01:19;;;;;;;0.00;0.00;;;21.20;99.90;;;;;;4990831;28;20457;-75
2022/07/02 09:03:49;;;;;;;0.20;0.00;;;21.30;99.90;;;;;;5001129;28;20477;-72
2022/07/02 09:06:18;;;;;;;0.00;0.00;;;21.30;99.90;;;;;;4996976;28;20464;-70
2022/07/02 09:08:46;;;;;;;0.00;0.00;;;21.50;99.90;;;;;;4983249;28;20475;-72
2022/07/02 09:11:15;;;;;;;0.00;0.00;;;21.70;99.90;;;;;;4984126;28;20462;-71
2022/07/02 09:13:44;;;;;;;0.00;0.00;;;21.60;99.90;;;;;;4987218;28;20451;-73
2022/07/02 09:16:13;;;;;;;0.00;0.00;;;21.50;99.90;;;;;;4987697;28;20456;-72
2022/07/02 09:18:41;;;;;;;0.00;0.00;;;21.50;99.90;;;;;;5002002;28;20473;-71
2022/07/02 09:21:10;;;;;;;0.00;0.00;;;21.60;99.90;;;;;;4997793;28;20448;-70
2022/07/02 09:23:47;;;;;;;0.00;0.00;;;21.60;99.90;;;;;;5000126;28;20452;-71
2022/07/02 09:26:19;;;;;;;0.00;0.00;;;21.70;99.90;;;;;;4994450;28;20453;-71
2022/07/02 09:28:59;;;;;;;0.00;0.00;;;21.70;99.90;;;;;;4980570;28;21199;-71
2022/07/02 09:31:29;;;;;;;0.00;0.00;;;21.80;99.90;;;;;;4980743;28;20446;-73
2022/07/02 09:33:58;;;;;;;0.00;0.00;;;21.80;99.90;;;;;;4985651;28;21056;-70
2022/07/02 09:36:26;;;;;;;0.00;0.00;;;21.80;99.90;;;;;;5001350;28;20472;-77
2022/07/02 09:38:55;;;;;;;0.00;0.00;;;21.80;99.90;;;;;;5001906;28;20444;-78
2022/07/02 09:41:24;;;;;;;0.00;0.00;;;21.90;99.90;;;;;;4988570;28;20444;-78
2022/07/02 09:43:53;;;;;;;0.00;0.00;;;22.00;99.90;;;;;;4992475;28;20442;-78
2022/07/02 09:46:22;;;;;;;0.00;0.00;;;22.20;99.90;;;;;;5011530;28;20760;-78
2022/07/02 09:48:51;;;;;;;0.00;0.00;;;22.30;99.90;;;;;;5015757;28;20483;-76
2022/07/02 09:51:20;;;;;;;0.00;0.00;;;22.40;99.90;;;;;;5007614;28;20465;-76
2022/07/02 09:53:50;;;;;;;0.00;0.00;;;22.50;99.90;;;;;;5010986;28;20687;-75
2022/07/02 09:56:19;;;;;;;0.00;0.00;;;22.60;99.90;;;;;;5007083;28;20556;-77
2022/07/02 09:58:47;;;;;;;0.00;0.00;;;22.50;99.90;;;;;;4999756;28;20712;-74
2022/07/02 10:01:19;;;;;;;0.00;0.00;;;22.50;99.90;;;;;;4990621;28;20485;-77
2022/07/02 10:03:52;;;;;;;0.00;0.00;;;22.40;99.90;;;;;;5000366;28;20536;-75
2022/07/02 10:06:21;;;;;;;0.00;0.00;;;22.50;99.90;;;;;;4980628;28;20541;-74
2022/07/02 10:08:54;;;;;;;0.00;0.00;;;22.60;99.90;;;;;;4980043;28;21003;-75
2022/07/02 10:11:23;;;;;;;0.00;0.00;;;22.70;99.90;;;;;;4979712;28;20538;-75
2022/07/02 10:13:51;;;;;;;0.00;0.00;;;22.90;99.90;;;;;;4980435;28;21025;-76
2022/07/02 10:16:22;;;;;;;0.00;0.00;;;23.10;99.90;;;;;;4981125;28;20563;-75
2022/07/02 10:18:53;;;;;;;0.00;0.00;;;23.30;99.90;;;;;;4980338;28;20431;-75
2022/07/02 10:21:24;;;;;;;0.00;0.00;;;23.40;99.90;;;;;;4979498;28;20435;-77
2022/07/02 10:23:53;;;;;;;0.00;0.00;;;23.50;99.90;;;;;;4979683;28;20558;-76
2022/07/02 10:26:21;;;;;;;0.00;0.00;;;23.70;99.90;;;;;;4980616;28;20475;-74
2022/07/02 10:28:50;;;;;;;0.00;0.00;;;23.90;99.90;;;;;;4980473;28;20869;-74
2022/07/02 10:31:19;;;;;;;0.00;0.00;;;24.10;99.90;;;;;;4989869;28;20467;-74
2022/07/02 10:33:55;;;;;;;0.00;0.00;;;24.30;99.90;;;;;;5000002;28;20729;-74
2022/07/02 10:36:23;;;;;;;0.00;0.00;;;24.40;99.90;;;;;;4999955;28;20489;-79
2022/07/02 10:39:00;;;;;;;0.00;0.00;;;24.50;99.90;;;;;;5000362;28;20536;-75
2022/07/02 10:41:30;;;;;;;0.00;0.00;;;24.60;99.90;;;;;;4999066;28;20502;-77
2022/07/02 10:43:59;;;;;;;0.00;0.00;;;24.60;99.90;;;;;;4993550;28;20535;-77
2022/07/02 10:46:28;;;;;;;0.00;0.00;;;24.70;99.90;;;;;;4999765;28;20459;-76
2022/07/02 10:48:58;;;;;;;0.00;0.00;;;24.80;99.90;;;;;;4992916;28;20490;-78
2022/07/02 10:51:28;;;;;;;0.00;0.00;;;24.90;99.90;;;;;;5003100;28;20532;-78
2022/07/02 10:53:59;;;;;;;0.00;0.00;;;25.00;99.90;;;;;;5003363;28;20447;-79
2022/07/02 10:56:27;;;;;;;0.00;0.00;;;25.00;99.90;;;;;;4983271;28;20521;-79
2022/07/02 10:58:55;;;;;;;0.00;0.00;;;24.90;99.90;;;;;;5001645;28;21144;-79
2022/07/02 11:01:25;;;;;;;0.00;0.00;;;24.80;99.60;;;;;;5001283;28;21223;-78
2022/07/02 11:03:55;;;;;;;0.00;0.00;;;24.60;99.50;;;;;;5002147;28;20464;-78
2022/07/02 11:06:26;;;;;;;0.00;0.00;;;24.50;99.90;;;;;;5002293;28;20457;-79
2022/07/02 11:08:57;;;;;;;0.00;0.00;;;24.50;99.90;;;;;;5002269;28;21059;-77
2022/07/02 11:11:48;;;;;;;0.00;0.00;;;24.60;99.90;;;;;;5002986;28;20519;-80
2022/07/02 11:14:17;;;;;;;0.00;0.00;;;24.70;99.90;;;;;;5001376;28;20495;-76
2022/07/02 11:16:48;;;;;;;0.00;0.00;;;24.70;99.90;;;;;;5001748;28;21037;-79
2022/07/02 11:19:19;;;;;;;0.00;0.00;;;24.70;99.90;;;;;;4996002;28;20504;-78
2022/07/02 11:21:49;;;;;;;0.00;0.00;;;24.60;99.90;;;;;;4998624;28;20767;-78
2022/07/02 11:24:28;;;;;;;0.00;0.00;;;24.50;99.90;;;;;;5000287;28;20453;-79
2022/07/02 11:26:56;;;;;;;0.00;0.00;;;24.60;99.90;;;;;;4998490;28;20460;-77
2022/07/02 11:29:24;;;;;;;0.00;0.00;;;24.50;99.90;;;;;;4999421;28;20543;-79
2022/07/02 11:31:53;;;;;;;0.00;0.00;;;24.30;99.90;;;;;;4999526;28;20487;-79
2022/07/02 11:34:23;;;;;;;0.00;0.00;;;24.30;99.90;;;;;;4998018;28;20556;-78
2022/07/02 11:36:53;;;;;;;0.00;0.00;;;24.40;99.90;;;;;;5001070;28;20463;-78
2022/07/02 11:39:22;;;;;;;0.00;0.00;;;24.60;99.90;;;;;;5000995;28;20447;-78
2022/07/02 11:41:51;;;;;;;0.00;0.00;;;24.60;99.90;;;;;;4996620;28;21084;-80
2022/07/02 11:44:22;;;;;;;0.00;0.00;;;24.70;99.50;;;;;;5001377;28;20584;-77
2022/07/02 11:46:51;;;;;;;0.00;0.00;;;24.60;99.80;;;;;;5000654;28;21041;-79
2022/07/02 11:49:21;;;;;;;0.00;0.00;;;24.50;99.90;;;;;;5001364;28;20559;-79
2022/07/02 11:51:53;;;;;;;0.00;0.00;;;24.50;99.90;;;;;;4999059;28;20487;-77
2022/07/02 11:54:22;;;;;;;0.00;0.00;;;24.40;99.90;;;;;;5001009;28;20442;-79
2022/07/02 11:56:52;;;;;;;0.00;0.00;;;24.50;99.90;;;;;;4999946;28;20500;-79
2022/07/02 11:59:22;;;;;;;0.00;0.00;;;24.60;99.40;;;;;;5002010;28;20448;-79
2022/07/02 12:01:51;;;;;;;0.00;0.00;;;24.70;99.60;;;;;;5002145;28;20443;-79
2022/07/02 12:04:21;;;;;;;0.00;0.00;;;24.70;99.80;;;;;;4996842;28;20571;-74
2022/07/02 12:06:50;;;;;;;0.00;0.00;;;24.70;99.90;;;;;;4996170;28;20483;-77
2022/07/02 12:09:22;;;;;;;0.00;0.00;;;24.80;99.90;;;;;;4997062;28;20491;-73
2022/07/02 12:11:51;;;;;;;0.00;0.00;;;25.00;99.90;;;;;;5001590;28;20611;-76
2022/07/02 12:14:25;;;;;;;0.00;0.00;;;25.20;99.90;;;;;;5003536;28;20438;-76
2022/07/02 12:16:57;;;;;;;0.00;0.00;;;25.20;99.90;;;;;;5005145;28;20522;-74
2022/07/02 12:19:30;;;;;;;0.00;0.00;;;25.20;99.90;;;;;;5001770;28;21115;-75
2022/07/02 12:21:58;;;;;;;0.00;0.00;;;25.40;99.90;;;;;;4997633;28;20630;-75
2022/07/02 12:24:29;;;;;;;0.00;0.00;;;25.60;99.80;;;;;;4980575;28;20997;-74
2022/07/02 12:26:58;;;;;;;0.00;0.00;;;25.60;99.60;;;;;;4982704;28;20785;-75
2022/07/02 12:32:15;;;;;;;0.00;0.00;;;25.90;98.30;;;;;;4981476;28;21000;-74
2022/07/02 12:34:44;;;;;;;0.00;0.00;;;25.80;98.50;;;;;;4981650;28;20444;-77
2022/07/02 12:37:21;;;;;;;0.00;0.00;;;25.70;99.10;;;;;;4984516;28;20473;-76
2022/07/02 12:39:57;;;;;;;0.00;0.00;;;25.60;98.70;;;;;;4981904;28;20438;-75
2022/07/02 12:42:26;;;;;;;0.00;0.00;;;25.50;98.30;;;;;;4993384;28;20457;-74
2022/07/02 12:44:56;;;;;;;0.00;0.00;;;25.40;98.50;;;;;;4999903;28;20576;-74
2022/07/02 12:47:30;;;;;;;0.00;0.00;;;25.40;98.70;;;;;;4999430;28;20745;-74
2022/07/02 12:50:00;;;;;;;0.00;0.00;;;25.50;98.70;;;;;;4996721;28;20483;-74
2022/07/02 12:52:30;;;;;;;0.00;0.00;;;25.50;99.00;;;;;;4998063;28;20446;-71
2022/07/02 12:55:00;;;;;;;0.00;0.00;;;25.70;99.40;;;;;;4999169;28;20934;-72
2022/07/02 12:57:28;;;;;;;0.00;0.00;;;25.80;99.00;;;;;;4999760;28;20479;-73
2022/07/02 12:59:56;;;;;;;0.00;0.00;;;25.90;98.70;;;;;;4999388;28;20453;-75
2022/07/02 13:02:27;;;;;;;0.00;0.00;;;25.90;98.20;;;;;;5000320;28;20445;-73
2022/07/02 13:04:55;;;;;;;0.00;0.00;;;25.80;98.40;;;;;;5000392;28;20783;-74
2022/07/02 13:07:24;;;;;;;0.00;0.00;;;25.50;98.50;;;;;;5000410;28;20566;-75
2022/07/02 13:09:52;;;;;;;0.00;0.00;;;25.50;98.80;;;;;;5000637;28;20568;-73
2022/07/02 13:12:21;;;;;;;0.00;0.00;;;25.50;99.00;;;;;;5000092;28;20446;-72